Portada
METAR-TAF:

METAR-TAF

Aeropuertos :

Murcia, España

Base Aérea de Alcantarilla

latitud: 37-57N, longitud: 001-14W, altitud: 75 m

Observación

El informe se hizo hace 17 minutos, a las 18:00 UTC
Viento 12 kt del sur-sureste
Temperatura 33°C
Humedad 19%
Presión 1017 hPa
Visibilidad 10 km o más
sin nubes por debajo de 1500 m y sin presencia de cumulonimbus.

METAR: LERI 221800Z 16012KT CAVOK 33/06 Q1017 NOSIG

Hora: 20:17 (18:17 UTC)

Pronóstico

El informe se hizo hace 4 horas y 17 minutos, a las 14:00 UTC
Pronóstico válido del 22 a las 15 UTC al 22 a las 24 UTC
Viento 2 kt con dirección variable
Visibilidad 10 km o más
sin nubes por debajo de 1500 m y sin presencia de cumulonimbus.
Temporalmente
del 22 a las 15 UTC al 22 a las 19 UTC
Viento 12 kt del sureste

TAF: LERI 221400Z 2215/2224 VRB02KT CAVOK TEMPO 2215/2219 13012KT

Observaciones y pronósticos meteorológicos de más de 4000 aeropuertos (mensajes METAR y TAF).

Los puntos amarillos y rojos representan las estaciones disponibles.

Ponga el ratón en el punto deseado para ver el nombre de la estación.

Haga clic para ver las observaciones y los pronósticos meteorológicos.

Para cambiar el mapa : haga clic en los botones verdes con una cruz de color negro para hacer un zoom, en el botón verde con un guión para alejar o en las flechas verdes para mapas adyacentes.


METAR-TAF: